Time;durP1;ratioP1;P1;durP2;ratioP2;P2;SDS_P1;SDS_P2;PMS_P1;PMS_P2;Temp;Humidity;BMP_temperature;BMP_pressure;BME280_temperature;BME280_humidity;BME280_pressure;Samples;Min_cycle;Max_cycle;Signal;HPM_P1;HPM_P2
2021/04/08 00:01:15;;;;;;;2.40;1.62;;;;;;;21.16;47.94;100679.67;1793143;80;21203;-59
2021/04/08 00:03:42;;;;;;;1.75;1.30;;;;;;;21.21;47.89;100687.25;1792555;80;21155;-59
2021/04/08 00:06:09;;;;;;;2.92;1.50;;;;;;;21.24;47.81;100685.78;1793176;80;21116;-59
2021/04/08 00:08:36;;;;;;;2.27;1.60;;;;;;;21.28;47.73;100689.52;1793193;79;21252;-59
2021/04/08 00:11:03;;;;;;;2.90;1.50;;;;;;;21.29;47.70;100694.74;1793012;80;21174;-59
2021/04/08 00:13:29;;;;;;;2.20;1.45;;;;;;;21.29;47.64;100688.39;1795296;79;21108;-59
2021/04/08 00:15:56;;;;;;;2.17;1.55;;;;;;;21.29;47.65;100682.30;1798537;79;21063;-60
2021/04/08 00:18:22;;;;;;;2.45;1.60;;;;;;;21.30;47.67;100691.41;1798971;79;21411;-59
2021/04/08 00:20:49;;;;;;;2.05;1.30;;;;;;;21.33;47.66;100689.37;1804429;79;21524;-59
2021/04/08 00:23:15;;;;;;;2.35;1.50;;;;;;;21.34;47.62;100694.56;1768882;81;21140;-59
2021/04/08 00:25:42;;;;;;;2.80;1.47;;;;;;;21.33;47.59;100686.59;1766897;81;21173;-59
2021/04/08 00:28:09;;;;;;;3.22;1.95;;;;;;;21.32;47.60;100684.97;1736734;82;21142;-59
2021/04/08 00:30:45;;;;;;;2.85;1.70;;;;;;;21.28;47.59;100694.49;1767829;81;21169;-59
2021/04/08 00:33:05;;;;;;;2.22;1.62;;;;;;;21.27;47.62;100689.27;1764935;80;21148;-59
2021/04/08 00:35:32;;;;;;;2.87;1.77;;;;;;;21.29;47.63;100692.55;1766818;81;21607;-58
2021/04/08 00:37:58;;;;;;;2.95;1.90;;;;;;;21.31;47.62;100696.60;1766752;81;21134;-59
2021/04/08 00:40:25;;;;;;;3.17;2.00;;;;;;;21.31;47.60;100693.83;1767068;81;21122;-59
2021/04/08 00:42:52;;;;;;;3.50;2.10;;;;;;;21.30;47.57;100691.41;1767141;81;21131;-59
2021/04/08 00:45:18;;;;;;;2.75;2.00;;;;;;;21.27;47.56;100693.42;1767216;80;21134;-59
2021/04/08 00:47:45;;;;;;;4.28;2.35;;;;;;;21.25;47.56;100692.95;1766957;81;21308;-59
2021/04/08 00:50:13;;;;;;;2.87;2.10;;;;;;;21.22;47.59;100691.63;1767266;81;21170;-59
2021/04/08 00:55:53;;;;;;;3.15;2.22;;;;;;;21.24;47.62;100699.05;1799500;79;20996;-59
2021/04/08 00:58:20;;;;;;;4.10;2.33;;;;;;;21.23;47.58;100700.75;1779296;80;21205;-58
2021/04/08 01:00:47;;;;;;;2.92;2.20;;;;;;;21.21;47.55;100705.80;1774037;80;21150;-59
2021/04/08 01:03:15;;;;;;;2.90;2.08;;;;;;;21.18;47.54;100699.52;1848047;77;21416;-59
2021/04/08 01:05:42;;;;;;;3.27;2.10;;;;;;;21.15;47.56;100702.94;1842579;77;21136;-59
2021/04/08 01:08:09;;;;;;;2.98;2.42;;;;;;;21.12;47.55;100715.48;1842194;77;21167;-58
2021/04/08 01:10:35;;;;;;;3.52;2.25;;;;;;;21.11;47.61;100717.95;1840121;77;21175;-58
2021/04/08 01:13:09;;;;;;;5.92;2.58;;;;;;;21.13;47.60;100719.84;1741874;82;21752;-58
2021/04/08 01:15:36;;;;;;;3.15;2.40;;;;;;;21.14;47.58;100728.40;1803897;78;21108;-59
2021/04/08 01:18:14;;;;;;;3.70;2.60;;;;;;;21.12;47.55;100725.69;1824079;78;21127;-62
2021/04/08 01:20:51;;;;;;;3.42;2.60;;;;;;;21.09;47.53;100720.22;1824184;78;20992;-59
2021/04/08 01:23:36;;;;;;;3.62;2.60;;;;;;;21.07;47.55;100724.45;1824328;78;21577;-59
2021/04/08 01:26:36;;;;;;;3.37;2.40;;;;;;;21.04;47.53;100724.55;1824090;78;21116;-60
2021/04/08 01:29:22;;;;;;;3.92;2.65;;;;;;;21.03;47.55;100730.39;1742494;81;21449;-58
2021/04/08 01:31:50;;;;;;;3.55;2.58;;;;;;;21.03;47.53;100726.23;1833622;77;21175;-59
2021/04/08 01:34:16;;;;;;;3.37;2.52;;;;;;;21.01;47.51;100728.50;1820056;77;21152;-59
2021/04/08 01:36:43;;;;;;;4.65;3.10;;;;;;;20.98;47.48;100729.41;1847673;77;21742;-58
2021/04/08 01:43:10;;;;;;;4.22;2.67;;;;;;;20.92;47.49;100732.63;1842260;77;21435;-58
2021/04/08 01:45:36;;;;;;;4.15;2.70;;;;;;;20.91;47.52;100735.17;1842340;77;21536;-57
2021/04/08 01:48:04;;;;;;;4.00;2.65;;;;;;;20.91;47.48;100733.78;1815336;77;21187;-58
2021/04/08 01:50:31;;;;;;;4.58;3.10;;;;;;;20.90;47.47;100740.45;1814743;79;21162;-59
2021/04/08 01:52:57;;;;;;;4.50;3.02;;;;;;;20.88;47.47;100742.14;1814758;79;21552;-58
2021/04/08 01:55:25;;;;;;;5.30;3.40;;;;;;;20.84;47.44;100748.06;1813491;79;21161;-57
2021/04/08 01:57:52;;;;;;;3.80;2.80;;;;;;;20.83;47.46;100751.17;1808090;78;21142;-58
2021/04/08 02:00:20;;;;;;;4.15;3.05;;;;;;;20.84;47.51;100752.77;1805834;78;21890;-57
2021/04/08 02:02:49;;;;;;;4.75;2.75;;;;;;;20.89;47.52;100762.31;1826058;78;21361;-57
2021/04/08 02:05:17;;;;;;;4.60;3.37;;;;;;;20.92;47.50;100761.09;1826031;78;20952;-57
2021/04/08 02:07:46;;;;;;;3.50;2.72;;;;;;;20.95;47.45;100761.86;1819687;78;21149;-57
2021/04/08 02:10:14;;;;;;;4.83;2.95;;;;;;;20.97;47.42;100767.88;1819293;78;21210;-58
2021/04/08 02:12:43;;;;;;;3.55;2.72;;;;;;;21.00;47.39;100773.34;1820965;78;21492;-58
2021/04/08 02:15:11;;;;;;;3.47;2.47;;;;;;;21.01;47.37;100783.81;1817754;78;21151;-59
2021/04/08 02:17:38;;;;;;;4.25;2.92;;;;;;;21.04;47.39;100774.90;1822021;78;20987;-57
2021/04/08 02:24:06;;;;;;;6.05;2.75;;;;;;;21.13;47.31;100787.62;1806820;79;21138;-58
2021/04/08 02:26:32;;;;;;;6.42;3.02;;;;;;;21.17;47.20;100798.89;1812544;78;21112;-58
2021/04/08 02:28:59;;;;;;;5.53;3.15;;;;;;;21.17;47.15;100796.94;1812341;78;22157;-58
2021/04/08 02:31:25;;;;;;;3.60;2.77;;;;;;;21.18;47.15;100806.03;1806713;78;21151;-59
2021/04/08 02:33:52;;;;;;;3.10;2.50;;;;;;;21.20;47.13;100805.98;1810487;78;21913;-58
2021/04/08 02:36:19;;;;;;;3.98;2.90;;;;;;;21.23;47.12;100801.73;1825726;78;21095;-58
2021/04/08 02:38:45;;;;;;;4.25;2.98;;;;;;;21.24;47.11;100798.66;1812406;78;21137;-59
2021/04/08 02:41:12;;;;;;;3.33;2.65;;;;;;;21.26;47.07;100803.29;1796231;79;21548;-59
2021/04/08 02:43:39;;;;;;;5.75;3.08;;;;;;;21.28;47.03;100794.67;1801570;78;21491;-59
2021/04/08 02:46:05;;;;;;;4.05;3.27;;;;;;;21.26;47.03;100799.14;1809371;78;21157;-59
2021/04/08 02:48:33;;;;;;;4.12;3.00;;;;;;;21.24;47.03;100800.05;1809349;79;21151;-59
2021/04/08 02:51:17;;;;;;;4.20;3.00;;;;;;;21.25;47.06;100802.24;1809173;78;21138;-59
2021/04/08 02:54:21;;;;;;;4.30;3.33;;;;;;;21.27;47.05;100805.48;1816046;78;21187;-59
2021/04/08 02:56:54;;;;;;;3.77;2.72;;;;;;;21.27;47.05;100802.72;1826833;78;21465;-59
2021/04/08 02:59:26;;;;;;;5.62;3.40;;;;;;;21.25;47.01;100803.63;1803329;78;21210;-59
2021/04/08 03:02:00;;;;;;;3.72;3.27;;;;;;;21.23;47.00;100800.35;1782344;79;21202;-59
2021/04/08 03:04:27;;;;;;;4.22;3.00;;;;;;;21.20;47.02;100802.39;1774880;80;21487;-59
2021/04/08 03:06:53;;;;;;;3.67;2.98;;;;;;;21.20;47.04;100811.51;1775808;80;21196;-59
2021/04/08 03:09:28;;;;;;;5.00;3.12;;;;;;;21.20;47.05;100810.13;1791089;78;21155;-59
2021/04/08 03:11:55;;;;;;;4.58;3.47;;;;;;;21.20;47.02;100799.63;1826783;78;21096;-59
2021/04/08 03:14:21;;;;;;;5.42;3.75;;;;;;;21.18;47.01;100804.08;1818627;78;21152;-59
2021/04/08 03:16:49;;;;;;;5.10;3.62;;;;;;;21.16;47.00;100806.94;1791884;78;21006;-59
2021/04/08 03:19:22;;;;;;;4.35;3.25;;;;;;;21.14;47.02;100805.05;1784570;78;22026;-59
2021/04/08 03:21:49;;;;;;;6.28;3.72;;;;;;;21.12;47.04;100797.09;1784154;80;21037;-59
2021/04/08 03:24:16;;;;;;;4.80;3.50;;;;;;;21.14;47.05;100801.72;1767996;80;21131;-59
2021/04/08 03:26:43;;;;;;;4.70;3.22;;;;;;;21.15;47.03;100800.59;1790146;79;21155;-59
2021/04/08 03:29:10;;;;;;;5.03;3.67;;;;;;;21.13;47.00;100803.44;1790417;79;21303;-59
2021/04/08 03:31:41;;;;;;;5.47;3.95;;;;;;;21.12;46.97;100804.53;1794417;79;21210;-60
2021/04/08 03:34:08;;;;;;;4.45;3.58;;;;;;;21.09;46.96;100807.95;1792412;78;21151;-59
2021/04/08 03:36:35;;;;;;;5.67;3.83;;;;;;;21.06;47.00;100812.72;1743761;81;21214;-59
2021/04/08 03:39:01;;;;;;;4.67;3.52;;;;;;;21.05;47.04;100806.97;1765380;80;21131;-59
2021/04/08 03:41:28;;;;;;;4.58;3.10;;;;;;;21.06;47.08;100811.34;1765544;79;21123;-59
2021/04/08 03:43:55;;;;;;;6.05;3.80;;;;;;;21.07;47.08;100815.17;1778636;79;22572;-59
2021/04/08 03:46:21;;;;;;;4.72;3.47;;;;;;;21.06;47.11;100815.48;1796738;79;21574;-59
2021/04/08 03:48:48;;;;;;;4.95;3.33;;;;;;;21.04;47.16;100816.39;1778759;79;21555;-59
2021/04/08 03:51:15;;;;;;;4.30;3.02;;;;;;;21.01;47.23;100816.44;1776158;80;21167;-59
2021/04/08 03:53:41;;;;;;;4.70;3.58;;;;;;;20.99;47.35;100815.97;1711548;83;21175;-59
2021/04/08 03:56:08;;;;;;;4.53;3.17;;;;;;;20.99;47.43;100820.11;1699279;83;21319;-59
2021/04/08 03:58:36;;;;;;;4.30;3.20;;;;;;;21.00;47.49;100823.13;1763190;81;21176;-60
2021/04/08 04:01:03;;;;;;;4.40;3.02;;;;;;;21.02;47.55;100828.33;1743635;81;21580;-59
2021/04/08 04:03:30;;;;;;;4.22;2.98;;;;;;;21.01;47.61;100830.84;1749758;81;21614;-59
2021/04/08 04:05:56;;;;;;;4.00;3.08;;;;;;;20.97;47.67;100830.10;1834562;78;21535;-59
2021/04/08 04:08:23;;;;;;;4.60;3.25;;;;;;;20.95;47.73;100830.19;1837048;77;21886;-59
2021/04/08 04:10:50;;;;;;;3.77;2.60;;;;;;;20.95;47.77;100840.69;1794186;79;21032;-61
2021/04/08 04:13:16;;;;;;;3.45;2.58;;;;;;;21.00;47.83;100841.12;1794348;79;21119;-59
2021/04/08 04:15:46;;;;;;;3.95;2.77;;;;;;;21.03;47.82;100841.84;1752346;80;21672;-59
2021/04/08 04:18:16;;;;;;;4.03;2.70;;;;;;;21.08;47.79;100854.73;1786638;79;21158;-59
2021/04/08 04:20:42;;;;;;;5.55;3.50;;;;;;;21.09;47.77;100859.92;1770838;80;21486;-58
2021/04/08 04:23:08;;;;;;;5.15;3.40;;;;;;;21.09;47.76;100854.98;1760513;80;21135;-59
2021/04/08 04:25:34;;;;;;;4.25;3.02;;;;;;;21.09;47.78;100861.90;1761159;81;21107;-59
2021/04/08 04:28:01;;;;;;;4.58;3.45;;;;;;;21.09;47.85;100860.52;1749510;79;21238;-58
2021/04/08 04:30:28;;;;;;;7.33;3.77;;;;;;;21.13;47.92;100857.39;1759083;79;21534;-59
2021/04/08 04:32:56;;;;;;;10.10;4.28;;;;;;;21.18;47.92;100855.83;1750749;79;21158;-58
2021/04/08 04:35:22;;;;;;;5.87;3.65;;;;;;;21.24;47.90;100858.72;1752308;80;21151;-57
2021/04/08 04:37:50;;;;;;;9.08;3.80;;;;;;;21.28;47.92;100861.09;1752768;80;21167;-57
2021/04/08 04:40:17;;;;;;;15.38;5.17;;;;;;;21.31;47.94;100858.48;1744127;80;21300;-58
2021/04/08 04:42:43;;;;;;;16.12;5.25;;;;;;;21.35;47.96;100852.56;1747291;79;21225;-59
2021/04/08 04:45:12;;;;;;;7.12;3.85;;;;;;;21.38;47.99;100848.34;1746516;81;22107;-59
2021/04/08 04:47:40;;;;;;;6.65;3.60;;;;;;;21.44;48.00;100856.73;1757639;79;21151;-57
2021/04/08 04:50:10;;;;;;;8.15;3.95;;;;;;;21.49;47.99;100873.20;1762797;81;21143;-60
2021/04/08 04:52:37;;;;;;;7.58;3.75;;;;;;;21.52;47.97;100900.23;1764673;81;21700;-60
2021/04/08 04:55:06;;;;;;;17.92;5.40;;;;;;;21.55;47.94;100916.78;1756426;79;21151;-60
2021/04/08 04:57:32;;;;;;;5.53;3.12;;;;;;;21.56;47.93;100917.83;1776906;79;21266;-58
2021/04/08 04:59:58;;;;;;;4.10;2.85;;;;;;;21.58;47.99;100927.20;1781296;78;21162;-60
2021/04/08 05:02:25;;;;;;;10.53;4.55;;;;;;;21.62;48.00;100929.58;1780290;79;21193;-58
2021/04/08 05:04:52;;;;;;;8.35;3.92;;;;;;;21.65;47.96;100928.36;1780382;79;21272;-57
2021/04/08 05:07:19;;;;;;;7.60;3.72;;;;;;;21.69;47.94;100922.42;1832554;77;21151;-58
2021/04/08 05:09:45;;;;;;;11.95;4.17;;;;;;;21.73;47.89;100926.17;1827957;76;21166;-60
2021/04/08 05:12:12;;;;;;;7.55;3.67;;;;;;;21.74;47.88;100930.59;1827591;76;21211;-58
2021/04/08 05:14:39;;;;;;;5.03;3.22;;;;;;;21.76;47.88;100946.33;1828019;76;21103;-57
2021/04/08 05:17:06;;;;;;;7.20;3.33;;;;;;;21.80;47.85;100959.77;1827286;77;21147;-58
2021/04/08 05:19:32;;;;;;;6.92;3.90;;;;;;;21.83;47.80;100958.30;1829935;76;21134;-58
2021/04/08 05:21:59;;;;;;;4.80;3.27;;;;;;;21.86;47.76;100951.55;1838965;77;21581;-60
2021/04/08 05:24:25;;;;;;;5.30;3.80;;;;;;;21.88;47.74;100954.82;1827959;76;21198;-59
2021/04/08 05:26:52;;;;;;;4.65;3.22;;;;;;;21.87;47.55;100957.34;1815580;77;21162;-59
2021/04/08 05:29:25;;;;;;;5.15;3.25;;;;;;;21.87;47.58;100969.80;1838424;76;21146;-62
2021/04/08 05:31:51;;;;;;;8.30;4.42;;;;;;;21.88;47.60;100972.83;1839712;76;21136;-58
2021/04/08 05:34:18;;;;;;;6.87;3.72;;;;;;;21.91;47.58;100974.69;1840070;77;23512;-58
2021/04/08 05:36:44;;;;;;;7.08;3.00;;;;;;;21.94;47.45;100967.96;1842276;76;21356;-58
2021/04/08 05:39:10;;;;;;;7.95;4.17;;;;;;;21.98;47.36;100972.31;1838160;77;21139;-58
2021/04/08 05:41:37;;;;;;;7.20;3.58;;;;;;;21.99;47.27;100974.73;1838688;77;21152;-61
2021/04/08 05:44:05;;;;;;;4.97;3.60;;;;;;;21.98;47.22;100973.70;1825452;76;21107;-60
2021/04/08 05:46:31;;;;;;;6.80;3.80;;;;;;;21.98;47.23;100973.70;1765708;80;21546;-59
2021/04/08 05:48:58;;;;;;;4.15;3.12;;;;;;;21.95;47.24;100977.09;1759795;81;21430;-58
2021/04/08 05:51:24;;;;;;;4.72;2.92;;;;;;;21.92;47.30;100991.56;1781823;79;21038;-59
2021/04/08 05:53:51;;;;;;;5.35;3.12;;;;;;;21.90;47.33;100989.11;1794365;79;21254;-65
2021/04/08 05:56:17;;;;;;;4.50;3.15;;;;;;;21.93;47.33;100994.05;1820582;76;21128;-61
2021/04/08 05:58:44;;;;;;;5.28;2.90;;;;;;;21.93;47.36;101000.98;1831543;76;21181;-58
2021/04/08 06:01:10;;;;;;;5.37;3.33;;;;;;;21.92;47.38;101013.19;1836397;78;21159;-59
2021/04/08 06:03:37;;;;;;;5.90;3.37;;;;;;;21.91;47.40;101015.67;1836254;78;21114;-58
2021/04/08 06:06:05;;;;;;;3.77;2.77;;;;;;;21.90;47.46;101007.70;1836373;78;21162;-58
2021/04/08 06:08:31;;;;;;;4.40;3.05;;;;;;;21.87;47.55;101011.91;1836488;78;21550;-60
2021/04/08 06:10:58;;;;;;;4.33;3.40;;;;;;;21.85;47.63;101015.00;1836569;78;21185;-58
2021/04/08 06:13:24;;;;;;;3.83;2.90;;;;;;;21.85;47.65;101018.36;1834514;78;21165;-59
2021/04/08 06:15:54;;;;;;;7.03;3.02;;;;;;;21.86;47.71;101022.73;1811684;78;21142;-58
2021/04/08 06:18:20;;;;;;;19.10;7.00;;;;;;;21.86;47.81;101026.89;1812381;79;21206;-58
2021/04/08 06:20:47;;;;;;;33.80;11.53;;;;;;;21.86;47.91;101024.95;1745725;82;21142;-58
2021/04/08 06:23:14;;;;;;;12.45;5.17;;;;;;;21.86;48.05;101024.95;1795064;79;21657;-58
2021/04/08 06:25:41;;;;;;;4.97;2.83;;;;;;;21.86;48.19;101020.79;1763838;79;21190;-57
2021/04/08 06:28:07;;;;;;;3.47;2.60;;;;;;;21.87;48.29;101022.43;1797713;79;21111;-58
2021/04/08 06:30:34;;;;;;;7.60;4.78;;;;;;;21.90;48.38;101024.33;1791728;80;21117;-58
2021/04/08 06:33:01;;;;;;;17.17;7.78;;;;;;;21.92;48.42;101028.96;1769604;80;21167;-58
2021/04/08 06:35:28;;;;;;;9.30;4.75;;;;;;;21.92;48.49;101023.42;1742901;82;22076;-57
2021/04/08 06:37:54;;;;;;;7.15;3.72;;;;;;;21.91;48.58;101024.55;1769073;80;21158;-58
2021/04/08 06:40:21;;;;;;;18.77;6.53;;;;;;;21.88;48.64;101018.53;1773663;80;21138;-58
2021/04/08 06:42:49;;;;;;;12.93;5.97;;;;;;;21.89;48.71;101022.12;1773658;80;21450;-58
2021/04/08 06:45:16;;;;;;;21.55;8.20;;;;;;;21.89;48.75;101024.89;1773981;79;21129;-57
2021/04/08 06:48:14;;;;;;;14.87;7.28;;;;;;;21.90;48.80;101027.88;1796272;79;22100;-58
2021/04/08 06:50:42;;;;;;;4.80;3.10;;;;;;;21.90;48.78;101029.27;1796143;79;21168;-58
2021/04/08 06:53:08;;;;;;;5.17;3.30;;;;;;;21.85;48.80;101027.46;1738443;79;21201;-58
2021/04/08 06:55:35;;;;;;;5.58;3.17;;;;;;;21.82;48.89;101037.80;1761828;81;21189;-57
2021/04/08 06:58:05;;;;;;;5.70;2.47;;;;;;;21.79;49.01;101030.14;1778376;80;21181;-58
2021/04/08 07:00:32;;;;;;;6.17;3.27;;;;;;;21.77;49.10;101035.17;1795570;79;21169;-57
2021/04/08 07:03:00;;;;;;;5.00;3.60;;;;;;;21.78;49.14;101037.37;1794839;79;21197;-57
2021/04/08 07:05:27;;;;;;;6.60;3.47;;;;;;;21.77;49.21;101047.63;1770577;79;21189;-57
2021/04/08 07:07:54;;;;;;;6.28;3.52;;;;;;;21.76;49.24;101040.48;1735635;82;21256;-57
2021/04/08 07:10:20;;;;;;;5.65;2.87;;;;;;;21.75;49.28;101056.84;1756887;80;21155;-58
2021/04/08 07:12:47;;;;;;;3.60;2.67;;;;;;;21.70;49.36;101050.06;1728995;82;21199;-56
2021/04/08 07:15:14;;;;;;;4.75;2.72;;;;;;;21.67;49.48;101047.94;1729059;83;21186;-57
2021/04/08 07:17:41;;;;;;;3.62;2.47;;;;;;;21.65;49.58;101058.50;1744660;81;21203;-57
2021/04/08 07:20:09;;;;;;;2.80;2.33;;;;;;;21.67;49.66;101058.19;1768314;81;21143;-57
2021/04/08 07:22:36;;;;;;;5.50;3.08;;;;;;;21.67;49.66;101054.03;1758567;81;21866;-57
2021/04/08 07:25:13;;;;;;;4.22;2.70;;;;;;;21.66;49.68;101051.83;1747453;81;21306;-57
2021/04/08 07:27:42;;;;;;;3.42;2.37;;;;;;;21.64;49.75;101056.86;1743387;81;21573;-57
2021/04/08 07:30:15;;;;;;;4.80;2.85;;;;;;;21.59;49.81;101058.41;1790627;80;21563;-57
2021/04/08 07:32:44;;;;;;;5.72;2.90;;;;;;;21.54;49.90;101058.53;1760730;81;21182;-57
2021/04/08 07:35:19;;;;;;;4.92;2.92;;;;;;;21.50;50.00;101060.87;1735673;82;21175;-56
2021/04/08 07:37:58;;;;;;;4.12;2.55;;;;;;;21.47;50.12;101059.56;1813412;78;22110;-58
2021/04/08 07:40:26;;;;;;;3.80;2.58;;;;;;;21.47;50.20;101058.19;1808793;79;21838;-58
2021/04/08 07:42:53;;;;;;;4.17;2.55;;;;;;;21.47;50.21;101058.19;1808745;79;21158;-57
2021/04/08 07:45:33;;;;;;;4.37;2.67;;;;;;;21.45;50.23;101059.05;1808734;79;21169;-58
2021/04/08 07:48:01;;;;;;;3.58;2.87;;;;;;;21.39;50.27;101063.08;1808569;79;21544;-58
2021/04/08 07:50:29;;;;;;;4.35;2.58;;;;;;;21.34;50.34;101064.61;1808744;79;21575;-58
2021/04/08 07:52:55;;;;;;;3.72;2.20;;;;;;;21.31;50.43;101057.75;1808115;79;21187;-58
2021/04/08 07:55:25;;;;;;;4.25;2.20;;;;;;;21.31;50.51;101057.75;1808287;79;21631;-57
2021/04/08 08:04:47;;;;;;;3.42;1.90;;;;;;;21.38;50.36;101067.82;1754875;80;21153;-58
2021/04/08 08:07:27;;;;;;;3.05;2.12;;;;;;;21.40;50.28;101068.30;1764051;80;21612;-57
2021/04/08 08:09:54;;;;;;;2.72;1.70;;;;;;;21.44;50.28;101071.25;1783954;80;21126;-59
2021/04/08 08:12:21;;;;;;;2.95;2.35;;;;;;;21.50;50.28;101076.92;1783986;80;21218;-57
2021/04/08 08:14:48;;;;;;;3.33;2.00;;;;;;;21.56;50.25;101083.12;1784063;80;21194;-57
2021/04/08 08:17:15;;;;;;;2.60;1.85;;;;;;;21.63;50.24;101073.81;1764277;80;21227;-57
2021/04/08 08:19:44;;;;;;;3.50;2.40;;;;;;;21.67;50.20;101077.58;1783607;80;21158;-57
2021/04/08 08:22:23;;;;;;;3.08;1.95;;;;;;;21.70;50.19;101083.29;1783866;80;21183;-58
2021/04/08 08:24:56;;;;;;;3.15;2.08;;;;;;;21.75;50.21;101083.16;1784005;80;21190;-58
2021/04/08 08:27:46;;;;;;;3.25;2.08;;;;;;;21.82;50.19;101085.45;1783807;79;21562;-57
2021/04/08 08:30:22;;;;;;;3.65;2.05;;;;;;;21.86;50.17;101081.73;1745769;80;21232;-58
2021/04/08 08:33:17;;;;;;;2.62;1.90;;;;;;;21.91;50.09;101089.65;1783996;80;21174;-58
2021/04/08 08:35:44;;;;;;;2.25;1.90;;;;;;;21.93;50.07;101084.66;1784099;80;21147;-56
2021/04/08 08:38:17;;;;;;;2.58;1.80;;;;;;;21.92;50.03;101081.59;1783871;80;22062;-58
2021/04/08 08:40:45;;;;;;;2.25;1.75;;;;;;;21.94;50.03;101079.37;1784090;80;21167;-57
2021/04/08 08:43:13;;;;;;;2.22;1.65;;;;;;;21.97;49.97;101086.46;1776872;80;22143;-58
2021/04/08 08:45:40;;;;;;;2.42;1.72;;;;;;;22.01;49.91;101083.86;1751095;81;21182;-58
2021/04/08 08:48:11;;;;;;;2.87;1.98;;;;;;;22.04;49.83;101086.80;1751181;81;21187;-58
2021/04/08 08:50:38;;;;;;;2.98;1.70;;;;;;;22.03;49.83;101083.78;1747046;82;21194;-59
2021/04/08 08:53:06;;;;;;;3.12;1.90;;;;;;;22.01;49.81;101073.60;1751230;80;21190;-58
2021/04/08 08:55:32;;;;;;;2.80;1.67;;;;;;;21.99;49.80;101074.48;1729889;82;21589;-58
2021/04/08 08:57:59;;;;;;;2.70;1.82;;;;;;;22.01;49.79;101075.55;1750993;82;21167;-58
2021/04/08 09:03:50;;;;;;;3.22;1.95;;;;;;;22.08;49.68;101080.05;1759252;81;21173;-58
2021/04/08 09:06:20;;;;;;;2.60;2.00;;;;;;;22.06;49.61;101072.08;1752054;81;21178;-58
2021/04/08 09:08:53;;;;;;;2.90;2.12;;;;;;;22.05;49.60;101075.16;1743789;82;21596;-58
2021/04/08 09:11:26;;;;;;;2.20;1.47;;;;;;;22.00;49.63;101075.30;1721386;82;21180;-58
2021/04/08 09:13:54;;;;;;;1.82;1.25;;;;;;;21.97;49.67;101067.63;1743788;82;21121;-57
2021/04/08 09:16:20;;;;;;;2.10;1.40;;;;;;;21.97;49.67;101085.08;1743807;81;21270;-57
2021/04/08 09:19:05;;;;;;;2.33;1.55;;;;;;;21.98;49.62;101078.38;1744004;82;21137;-57
2021/04/08 09:21:51;;;;;;;2.95;1.85;;;;;;;22.01;49.59;101076.94;1743842;82;22108;-57
2021/04/08 09:24:21;;;;;;;2.30;1.55;;;;;;;22.00;49.56;101073.91;1743535;82;21172;-58
2021/04/08 09:26:51;;;;;;;2.45;1.50;;;;;;;21.95;49.53;101071.28;1743857;82;21878;-58
2021/04/08 09:29:43;;;;;;;2.35;1.57;;;;;;;21.92;49.56;101084.36;1745553;82;21145;-56
2021/04/08 09:32:37;;;;;;;1.60;1.10;;;;;;;21.91;49.60;101082.16;1748408;81;21177;-56
2021/04/08 09:35:09;;;;;;;2.25;1.40;;;;;;;21.94;49.56;101086.30;1751289;81;21289;-56
2021/04/08 09:38:14;;;;;;;2.72;1.98;;;;;;;21.98;49.49;101081.74;1752596;80;21169;-55
2021/04/08 09:40:46;;;;;;;2.52;1.50;;;;;;;22.00;49.44;101079.45;1731037;82;21139;-57
2021/04/08 09:43:16;;;;;;;2.65;1.95;;;;;;;21.95;49.41;101084.56;1752306;81;21192;-57
2021/04/08 09:45:51;;;;;;;2.40;1.65;;;;;;;21.91;49.45;101087.70;1752626;81;21152;-58
2021/04/08 09:48:23;;;;;;;2.40;1.60;;;;;;;21.87;49.48;101083.94;1752652;81;21265;-57
2021/04/08 09:51:00;;;;;;;2.20;1.35;;;;;;;21.86;49.55;101078.96;1752459;81;21637;-56
2021/04/08 09:53:40;;;;;;;1.90;1.50;;;;;;;21.89;49.52;101084.45;1731069;82;21597;-57
2021/04/08 09:56:08;;;;;;;2.33;1.57;;;;;;;21.92;49.46;101080.20;1731337;82;21812;-57
2021/04/08 09:58:36;;;;;;;2.37;1.50;;;;;;;21.93;49.44;101077.16;1717340;82;21166;-58
2021/04/08 10:01:06;;;;;;;2.90;1.82;;;;;;;21.94;49.41;101080.75;1731997;82;22067;-57
2021/04/08 10:03:38;;;;;;;1.92;1.45;;;;;;;21.92;49.45;101074.66;1738636;81;21162;-57
2021/04/08 10:06:21;;;;;;;2.00;1.40;;;;;;;21.91;49.47;101075.80;1731475;81;21168;-58
2021/04/08 10:08:48;;;;;;;1.95;1.30;;;;;;;21.91;49.51;101073.02;1730221;82;21186;-58
2021/04/08 10:11:26;;;;;;;2.30;1.65;;;;;;;21.94;49.47;101075.21;1725500;82;21166;-58
2021/04/08 10:13:53;;;;;;;2.08;1.40;;;;;;;21.98;49.42;101071.45;1736233;82;22551;-57
2021/04/08 10:16:20;;;;;;;2.17;1.60;;;;;;;22.00;49.39;101082.22;1738843;82;21437;-58
2021/04/08 10:18:47;;;;;;;1.85;1.40;;;;;;;22.00;49.33;101071.14;1738215;82;21160;-60
2021/04/08 10:21:16;;;;;;;2.47;1.37;;;;;;;22.00;49.32;101083.61;1738673;82;21192;-57
2021/04/08 10:23:47;;;;;;;2.05;1.55;;;;;;;21.95;49.32;101077.64;1738904;82;21173;-57
2021/04/08 10:26:25;;;;;;;2.20;1.40;;;;;;;21.94;49.36;101077.98;1737290;82;21185;-57
2021/04/08 10:28:55;;;;;;;2.70;1.75;;;;;;;21.95;49.34;101084.56;1737646;82;21178;-57
2021/04/08 10:31:27;;;;;;;2.37;1.37;;;;;;;22.00;49.30;101089.15;1738008;82;21462;-57
2021/04/08 10:34:08;;;;;;;2.33;1.40;;;;;;;22.01;49.27;101082.48;1738963;82;21150;-57
2021/04/08 10:36:46;;;;;;;2.42;1.67;;;;;;;22.04;49.25;101090.14;1739150;82;21036;-58
2021/04/08 10:39:27;;;;;;;2.22;1.45;;;;;;;22.05;49.23;101082.91;1739181;82;21165;-57
2021/04/08 10:42:04;;;;;;;;;;;;;;;22.06;49.22;101079.56;1737264;82;21182;-56
2021/04/08 10:44:36;;;;;;;2.08;1.27;;;;;;;22.08;49.21;101091.95;1732282;82;20234;-57
2021/04/08 10:47:12;;;;;;;1.62;1.35;;;;;;;22.12;49.16;101090.73;1731477;82;21198;-57
2021/04/08 10:49:49;;;;;;;2.52;1.35;;;;;;;22.13;49.09;101090.42;1731493;82;21150;-56
2021/04/08 10:52:25;;;;;;;2.52;1.70;;;;;;;22.15;49.07;101091.50;1731545;82;21190;-56
2021/04/08 10:55:01;;;;;;;1.70;1.17;;;;;;;22.13;49.01;101097.92;1729820;82;21158;-58
2021/04/08 10:57:29;;;;;;;2.22;1.50;;;;;;;22.09;48.99;101085.28;1730761;82;21188;-58
2021/04/08 10:59:55;;;;;;;2.25;1.22;;;;;;;22.10;49.00;101081.37;1730072;82;21167;-57
2021/04/08 11:02:33;;;;;;;3.25;1.40;;;;;;;22.15;48.96;101087.34;1730001;82;21214;-58
2021/04/08 11:05:03;;;;;;;2.05;1.25;;;;;;;22.17;48.89;101092.80;1744284;81;21903;-57
2021/04/08 11:07:36;;;;;;;1.77;1.20;;;;;;;22.17;48.83;101087.83;1755448;81;21197;-57
2021/04/08 11:10:11;;;;;;;2.22;1.57;;;;;;;22.17;48.80;101086.44;1755266;80;21169;-56
2021/04/08 11:12:38;;;;;;;1.85;1.30;;;;;;;22.15;48.78;101084.58;1755216;81;22008;-57
2021/04/08 11:15:07;;;;;;;2.62;1.32;;;;;;;22.16;48.76;101082.84;1754911;81;21586;-57
2021/04/08 11:17:36;;;;;;;1.80;1.25;;;;;;;22.18;48.77;101074.22;1754767;81;22197;-59
2021/04/08 11:20:04;;;;;;;1.80;1.50;;;;;;;22.20;48.73;101080.25;1754638;81;21171;-57
2021/04/08 11:22:35;;;;;;;2.15;1.37;;;;;;;22.22;48.67;101084.91;1755149;81;21181;-58
2021/04/08 11:25:02;;;;;;;1.72;1.20;;;;;;;22.22;48.62;101080.19;1755143;81;21753;-56
2021/04/08 11:27:36;;;;;;;1.75;1.25;;;;;;;22.22;48.56;101079.37;1755254;81;21149;-58
2021/04/08 11:30:05;;;;;;;1.37;1.00;;;;;;;22.21;48.55;101079.94;1733150;81;22040;-57
2021/04/08 11:36:20;;;;;;;2.22;1.20;;;;;;;22.21;48.53;101083.27;1755050;81;21173;-57
2021/04/08 11:38:47;;;;;;;2.00;1.07;;;;;;;22.19;48.46;101082.20;1755182;81;21559;-58
2021/04/08 11:41:13;;;;;;;2.17;1.40;;;;;;;22.18;48.43;101083.36;1770160;80;21183;-57
2021/04/08 11:43:51;;;;;;;2.20;1.22;;;;;;;22.16;48.44;101083.41;1776787;80;21024;-57
2021/04/08 11:46:31;;;;;;;1.80;1.25;;;;;;;22.13;48.45;101088.22;1759152;80;21178;-57
2021/04/08 11:48:59;;;;;;;1.85;1.30;;;;;;;22.11;48.49;101090.48;1777577;80;21179;-57
2021/04/08 11:51:28;;;;;;;3.47;1.30;;;;;;;22.12;48.48;101093.51;1779016;80;21451;-57
2021/04/08 11:57:55;;;;;;;1.82;1.30;;;;;;;22.14;48.40;101080.16;1778744;80;21167;-58
2021/04/08 12:00:22;;;;;;;2.20;1.42;;;;;;;22.10;48.37;101076.41;1780174;80;21008;-58
2021/04/08 12:02:48;;;;;;;2.30;1.30;;;;;;;22.07;48.39;101082.00;1737485;80;21179;-57
2021/04/08 12:05:15;;;;;;;1.98;1.20;;;;;;;22.05;48.46;101082.08;1783937;80;21159;-58